sensor_id;sensor_type;location;lat;lon;timestamp;pressure;altitude;pressure_sealevel;temperature;humidity
59971;BME280;45825;45.434;9.116;2023-01-30T00:00:52;101048.13;;;4.43;66.87
59971;BME280;45825;45.434;9.116;2023-01-30T00:03:17;101050.81;;;4.39;67.00
59971;BME280;45825;45.434;9.116;2023-01-30T00:05:43;101042.97;;;4.40;66.77
59971;BME280;45825;45.434;9.116;2023-01-30T00:08:08;101050.81;;;4.39;67.26
59971;BME280;45825;45.434;9.116;2023-01-30T00:10:33;101049.09;;;4.39;66.53
59971;BME280;45825;45.434;9.116;2023-01-30T00:12:59;101039.69;;;4.29;67.08
59971;BME280;45825;45.434;9.116;2023-01-30T00:15:24;101041.28;;;4.38;67.02
59971;BME280;45825;45.434;9.116;2023-01-30T00:17:49;101037.94;;;4.29;67.11
59971;BME280;45825;45.434;9.116;2023-01-30T00:20:14;101031.88;;;4.29;66.80
59971;BME280;45825;45.434;9.116;2023-01-30T00:22:40;101032.63;;;4.36;67.32
59971;BME280;45825;45.434;9.116;2023-01-30T00:25:05;101035.31;;;4.31;66.85
59971;BME280;45825;45.434;9.116;2023-01-30T00:27:31;101030.09;;;4.31;67.25
59971;BME280;45825;45.434;9.116;2023-01-30T00:29:56;101027.44;;;4.36;66.96
59971;BME280;45825;45.434;9.116;2023-01-30T00:32:21;101024.91;;;4.29;67.35
59971;BME280;45825;45.434;9.116;2023-01-30T00:34:50;101025.88;;;4.24;68.02
59971;BME280;45825;45.434;9.116;2023-01-30T00:37:15;101020.59;;;4.28;67.21
59971;BME280;45825;45.434;9.116;2023-01-30T00:39:41;101021.47;;;4.29;67.03
59971;BME280;45825;45.434;9.116;2023-01-30T00:42:07;101011.22;;;4.16;67.50
59971;BME280;45825;45.434;9.116;2023-01-30T00:44:51;101017.38;;;4.14;67.68
59971;BME280;45825;45.434;9.116;2023-01-30T00:47:35;101027.63;;;4.23;67.18
59971;BME280;45825;45.434;9.116;2023-01-30T00:50:00;101020.59;;;4.28;67.42
59971;BME280;45825;45.434;9.116;2023-01-30T00:52:26;101024.19;;;4.21;67.28
59971;BME280;45825;45.434;9.116;2023-01-30T00:54:51;101022.53;;;4.17;67.75
59971;BME280;45825;45.434;9.116;2023-01-30T00:57:16;101014.00;;;4.07;67.72
59971;BME280;45825;45.434;9.116;2023-01-30T00:59:41;101013.13;;;4.08;68.17
59971;BME280;45825;45.434;9.116;2023-01-30T01:02:07;101009.56;;;4.12;67.76
59971;BME280;45825;45.434;9.116;2023-01-30T01:04:32;101013.19;;;4.03;68.13
59971;BME280;45825;45.434;9.116;2023-01-30T01:07:08;101001.13;;;3.98;68.61
59971;BME280;45825;45.434;9.116;2023-01-30T01:09:33;101002.81;;;4.00;68.20
59971;BME280;45825;45.434;9.116;2023-01-30T01:11:58;101003.66;;;4.02;68.32
59971;BME280;45825;45.434;9.116;2023-01-30T01:14:24;101004.66;;;3.94;68.17
59971;BME280;45825;45.434;9.116;2023-01-30T01:16:49;100987.22;;;3.97;68.51
59971;BME280;45825;45.434;9.116;2023-01-30T01:19:14;100990.78;;;3.93;68.72
59971;BME280;45825;45.434;9.116;2023-01-30T01:21:40;100995.25;;;3.86;68.65
59971;BME280;45825;45.434;9.116;2023-01-30T01:24:05;100992.66;;;3.85;68.64
59971;BME280;45825;45.434;9.116;2023-01-30T01:26:32;100990.88;;;3.87;68.98
59971;BME280;45825;45.434;9.116;2023-01-30T01:28:58;100982.94;;;3.95;68.35
59971;BME280;45825;45.434;9.116;2023-01-30T01:31:24;100986.63;;;3.81;69.01
59971;BME280;45825;45.434;9.116;2023-01-30T01:33:50;100983.06;;;3.87;68.70
59971;BME280;45825;45.434;9.116;2023-01-30T01:36:16;100983.88;;;3.90;68.78
59971;BME280;45825;45.434;9.116;2023-01-30T01:38:42;100991.00;;;3.77;69.03
59971;BME280;45825;45.434;9.116;2023-01-30T01:41:09;100979.63;;;3.85;69.03
59971;BME280;45825;45.434;9.116;2023-01-30T01:46:23;100977.91;;;3.84;69.00
59971;BME280;45825;45.434;9.116;2023-01-30T01:48:55;100977.91;;;3.84;69.06
59971;BME280;45825;45.434;9.116;2023-01-30T01:51:35;100974.50;;;3.80;69.25
59971;BME280;45825;45.434;9.116;2023-01-30T01:54:58;100980.59;;;3.79;69.14
59971;BME280;45825;45.434;9.116;2023-01-30T01:57:06;100969.41;;;3.71;69.48
59971;BME280;45825;45.434;9.116;2023-01-30T01:59:44;100987.69;;;3.69;69.47
59971;BME280;45825;45.434;9.116;2023-01-30T02:02:13;100981.34;;;3.84;68.95
59971;BME280;45825;45.434;9.116;2023-01-30T02:04:42;100981.66;;;3.66;70.16
59971;BME280;45825;45.434;9.116;2023-01-30T02:10:13;100987.06;;;3.53;70.17
59971;BME280;45825;45.434;9.116;2023-01-30T02:12:39;100985.31;;;3.52;70.78
59971;BME280;45825;45.434;9.116;2023-01-30T02:15:06;100989.69;;;3.50;71.08
59971;BME280;45825;45.434;9.116;2023-01-30T02:17:31;100987.91;;;3.54;70.46
59971;BME280;45825;45.434;9.116;2023-01-30T02:23:07;100983.50;;;3.57;70.67
59971;BME280;45825;45.434;9.116;2023-01-30T02:31:18;100978.38;;;3.53;70.78
59971;BME280;45825;45.434;9.116;2023-01-30T02:42:18;100960.41;;;3.34;71.90
59971;BME280;45825;45.434;9.116;2023-01-30T02:45:00;100954.44;;;3.27;71.88
59971;BME280;45825;45.434;9.116;2023-01-30T02:47:33;100962.19;;;3.33;71.74
59971;BME280;45825;45.434;9.116;2023-01-30T02:52:34;100936.22;;;3.29;72.01
59971;BME280;45825;45.434;9.116;2023-01-30T02:55:06;100932.88;;;3.20;71.85
59971;BME280;45825;45.434;9.116;2023-01-30T02:57:32;100930.31;;;3.17;72.61
59971;BME280;45825;45.434;9.116;2023-01-30T03:00:00;100928.59;;;3.15;73.07
59971;BME280;45825;45.434;9.116;2023-01-30T03:05:11;100921.47;;;3.29;71.86
59971;BME280;45825;45.434;9.116;2023-01-30T03:10:24;100914.72;;;3.17;72.81
59971;BME280;45825;45.434;9.116;2023-01-30T03:15:37;100900.88;;;3.14;72.58
59971;BME280;45825;45.434;9.116;2023-01-30T03:18:05;100904.31;;;3.17;72.20
59971;BME280;45825;45.434;9.116;2023-01-30T03:20:36;100893.78;;;3.27;72.22
59971;BME280;45825;45.434;9.116;2023-01-30T03:23:02;100890.16;;;3.37;71.65
59971;BME280;45825;45.434;9.116;2023-01-30T03:25:27;100887.50;;;3.39;71.58
59971;BME280;45825;45.434;9.116;2023-01-30T03:27:54;100884.88;;;3.42;71.26
59971;BME280;45825;45.434;9.116;2023-01-30T03:30:20;100875.56;;;3.27;71.57
59971;BME280;45825;45.434;9.116;2023-01-30T03:32:45;100880.00;;;3.20;72.28
59971;BME280;45825;45.434;9.116;2023-01-30T03:35:11;100876.59;;;3.15;72.88
59971;BME280;45825;45.434;9.116;2023-01-30T03:37:36;100877.41;;;3.20;72.47
59971;BME280;45825;45.434;9.116;2023-01-30T03:40:02;100878.22;;;3.22;71.96
59971;BME280;45825;45.434;9.116;2023-01-30T03:42:29;100875.63;;;3.20;72.30
59971;BME280;45825;45.434;9.116;2023-01-30T03:44:54;100871.38;;;3.16;72.33
59971;BME280;45825;45.434;9.116;2023-01-30T03:47:20;100867.81;;;3.22;72.64
59971;BME280;45825;45.434;9.116;2023-01-30T03:49:45;100864.16;;;3.34;71.63
59971;BME280;45825;45.434;9.116;2023-01-30T03:52:10;100873.72;;;3.33;71.91
59971;BME280;45825;45.434;9.116;2023-01-30T03:54:35;100875.63;;;3.22;72.31
59971;BME280;45825;45.434;9.116;2023-01-30T03:57:01;100875.56;;;3.25;71.61
59971;BME280;45825;45.434;9.116;2023-01-30T03:59:26;100866.06;;;3.22;72.02
59971;BME280;45825;45.434;9.116;2023-01-30T04:01:51;100861.66;;;3.28;71.31
59971;BME280;45825;45.434;9.116;2023-01-30T04:04:16;100859.09;;;3.25;71.95
59971;BME280;45825;45.434;9.116;2023-01-30T04:06:42;100857.44;;;3.20;71.48
59971;BME280;45825;45.434;9.116;2023-01-30T04:09:07;100850.59;;;3.15;71.82
59971;BME280;45825;45.434;9.116;2023-01-30T04:11:32;100847.97;;;3.16;71.09
59971;BME280;45825;45.434;9.116;2023-01-30T04:13:58;100841.91;;;3.14;71.33
59971;BME280;45825;45.434;9.116;2023-01-30T04:16:25;100839.34;;;3.13;71.08
59971;BME280;45825;45.434;9.116;2023-01-30T04:18:51;100850.91;;;2.91;71.92
59971;BME280;45825;45.434;9.116;2023-01-30T04:21:16;100835.25;;;2.96;71.79
59971;BME280;45825;45.434;9.116;2023-01-30T04:23:42;100831.75;;;2.99;71.18
59971;BME280;45825;45.434;9.116;2023-01-30T04:28:43;100818.91;;;2.88;71.39
59971;BME280;45825;45.434;9.116;2023-01-30T04:31:09;100818.28;;;2.72;72.25
59971;BME280;45825;45.434;9.116;2023-01-30T04:33:34;100817.41;;;2.73;72.10
59971;BME280;45825;45.434;9.116;2023-01-30T04:36:01;100823.53;;;2.67;72.48
59971;BME280;45825;45.434;9.116;2023-01-30T04:38:29;100824.44;;;2.66;72.39
59971;BME280;45825;45.434;9.116;2023-01-30T04:40:56;100823.56;;;2.65;72.39
59971;BME280;45825;45.434;9.116;2023-01-30T04:43:23;100821.66;;;2.77;71.99
59971;BME280;45825;45.434;9.116;2023-01-30T04:45:49;100817.28;;;2.82;71.51
59971;BME280;45825;45.434;9.116;2023-01-30T04:48:15;100825.16;;;2.74;71.91
59971;BME280;45825;45.434;9.116;2023-01-30T04:50:43;100822.63;;;2.70;72.42
59971;BME280;45825;45.434;9.116;2023-01-30T04:53:09;100832.06;;;2.75;71.94
59971;BME280;45825;45.434;9.116;2023-01-30T04:55:34;100828.81;;;2.59;72.29
59971;BME280;45825;45.434;9.116;2023-01-30T04:58:00;100823.78;;;2.48;72.97
59971;BME280;45825;45.434;9.116;2023-01-30T05:00:25;100823.84;;;2.42;73.32
59971;BME280;45825;45.434;9.116;2023-01-30T05:02:51;100819.53;;;2.41;73.16
59971;BME280;45825;45.434;9.116;2023-01-30T05:05:17;100826.56;;;2.33;73.70
59971;BME280;45825;45.434;9.116;2023-01-30T05:07:42;100830.84;;;2.35;73.69
59971;BME280;45825;45.434;9.116;2023-01-30T05:10:08;100835.22;;;2.35;73.52
59971;BME280;45825;45.434;9.116;2023-01-30T05:12:34;100828.97;;;2.47;73.71
59971;BME280;45825;45.434;9.116;2023-01-30T05:14:59;100826.31;;;2.51;72.64
59971;BME280;45825;45.434;9.116;2023-01-30T05:17:25;100836.75;;;2.50;73.25
59971;BME280;45825;45.434;9.116;2023-01-30T05:19:50;100839.34;;;2.50;72.62
59971;BME280;45825;45.434;9.116;2023-01-30T05:22:16;100845.44;;;2.46;72.84
59971;BME280;45825;45.434;9.116;2023-01-30T05:24:41;100840.16;;;2.55;72.75
59971;BME280;45825;45.434;9.116;2023-01-30T05:27:06;100825.44;;;2.54;72.29
59971;BME280;45825;45.434;9.116;2023-01-30T05:29:31;100817.53;;;2.62;71.45
59971;BME280;45825;45.434;9.116;2023-01-30T05:31:57;100815.88;;;2.56;71.47
59971;BME280;45825;45.434;9.116;2023-01-30T05:34:22;100807.47;;;2.35;72.20
59971;BME280;45825;45.434;9.116;2023-01-30T05:36:47;100821.44;;;2.25;73.14
59971;BME280;45825;45.434;9.116;2023-01-30T05:39:13;100828.25;;;2.37;72.53
59971;BME280;45825;45.434;9.116;2023-01-30T05:41:38;100822.22;;;2.35;72.00
59971;BME280;45825;45.434;9.116;2023-01-30T05:44:04;100823.94;;;2.33;72.35
59971;BME280;45825;45.434;9.116;2023-01-30T05:46:29;100825.81;;;2.21;72.62
59971;BME280;45825;45.434;9.116;2023-01-30T05:48:54;100826.16;;;1.93;73.47
59971;BME280;45825;45.434;9.116;2023-01-30T05:51:22;100823.56;;;1.93;74.14
59971;BME280;45825;45.434;9.116;2023-01-30T05:53:48;100811.31;;;2.06;74.19
59971;BME280;45825;45.434;9.116;2023-01-30T05:56:14;100826.88;;;2.05;73.88
59971;BME280;45825;45.434;9.116;2023-01-30T05:58:40;100825.22;;;2.01;74.68
59971;BME280;45825;45.434;9.116;2023-01-30T06:01:07;100832.97;;;2.02;74.49
59971;BME280;45825;45.434;9.116;2023-01-30T06:03:34;100819.94;;;2.05;73.98
59971;BME280;45825;45.434;9.116;2023-01-30T06:06:01;100813.16;;;1.92;74.06
59971;BME280;45825;45.434;9.116;2023-01-30T06:08:27;100825.25;;;1.96;74.02
59971;BME280;45825;45.434;9.116;2023-01-30T06:10:52;100824.50;;;1.85;74.06
59971;BME280;45825;45.434;9.116;2023-01-30T06:13:17;100813.34;;;1.73;73.74
59971;BME280;45825;45.434;9.116;2023-01-30T06:15:43;100822.06;;;1.71;74.88
59971;BME280;45825;45.434;9.116;2023-01-30T06:18:09;100821.16;;;1.72;74.68
59971;BME280;45825;45.434;9.116;2023-01-30T06:20:34;100825.41;;;1.80;74.18
59971;BME280;45825;45.434;9.116;2023-01-30T06:22:59;100812.53;;;1.70;73.69
59971;BME280;45825;45.434;9.116;2023-01-30T06:25:25;100810.09;;;1.56;74.02
59971;BME280;45825;45.434;9.116;2023-01-30T06:27:51;100809.25;;;1.50;74.59
59971;BME280;45825;45.434;9.116;2023-01-30T06:30:16;100808.47;;;1.42;74.94
59971;BME280;45825;45.434;9.116;2023-01-30T06:32:42;100798.88;;;1.52;74.84
59971;BME280;45825;45.434;9.116;2023-01-30T06:35:07;100797.94;;;1.58;74.78
59971;BME280;45825;45.434;9.116;2023-01-30T06:37:33;100807.44;;;1.59;75.25
59971;BME280;45825;45.434;9.116;2023-01-30T06:39:58;100822.97;;;1.63;75.26
59971;BME280;45825;45.434;9.116;2023-01-30T06:42:23;100814.13;;;1.85;74.42
59971;BME280;45825;45.434;9.116;2023-01-30T06:44:49;100803.81;;;1.78;73.84
59971;BME280;45825;45.434;9.116;2023-01-30T06:47:14;100805.59;;;1.70;74.38
59971;BME280;45825;45.434;9.116;2023-01-30T06:49:39;100793.50;;;1.67;74.70
59971;BME280;45825;45.434;9.116;2023-01-30T06:52:04;100799.53;;;1.74;73.85
59971;BME280;45825;45.434;9.116;2023-01-30T06:54:30;100810.88;;;1.64;74.03
59971;BME280;45825;45.434;9.116;2023-01-30T06:56:55;100818.66;;;1.64;74.61
59971;BME280;45825;45.434;9.116;2023-01-30T06:59:21;100829.75;;;1.77;74.45
59971;BME280;45825;45.434;9.116;2023-01-30T07:01:46;100833.91;;;1.95;73.32
59971;BME280;45825;45.434;9.116;2023-01-30T07:04:14;100830.41;;;1.99;73.77
59971;BME280;45825;45.434;9.116;2023-01-30T07:06:40;100834.59;;;2.11;73.29
59971;BME280;45825;45.434;9.116;2023-01-30T07:09:05;100820.63;;;2.21;72.46
59971;BME280;45825;45.434;9.116;2023-01-30T07:11:30;100818.84;;;2.27;72.40
59971;BME280;45825;45.434;9.116;2023-01-30T07:13:56;100835.31;;;2.26;72.03
59971;BME280;45825;45.434;9.116;2023-01-30T07:16:21;100839.78;;;2.14;71.93
59971;BME280;45825;45.434;9.116;2023-01-30T07:18:53;100820.72;;;2.14;72.41
59971;BME280;45825;45.434;9.116;2023-01-30T07:21:21;100830.22;;;2.15;72.53
59971;BME280;45825;45.434;9.116;2023-01-30T07:23:47;100816.44;;;2.09;72.09
59971;BME280;45825;45.434;9.116;2023-01-30T07:26:12;100825.13;;;2.07;72.72
59971;BME280;45825;45.434;9.116;2023-01-30T07:28:37;100825.03;;;2.15;72.65
59971;BME280;45825;45.434;9.116;2023-01-30T07:31:02;100820.47;;;2.35;71.85
59971;BME280;45825;45.434;9.116;2023-01-30T07:33:28;100827.34;;;2.40;71.32
59971;BME280;45825;45.434;9.116;2023-01-30T07:35:54;100825.06;;;2.13;71.97
59971;BME280;45825;45.434;9.116;2023-01-30T07:38:19;100819.94;;;2.05;72.30
59971;BME280;45825;45.434;9.116;2023-01-30T07:40:44;100800.94;;;2.03;72.40
59971;BME280;45825;45.434;9.116;2023-01-30T07:43:13;100804.47;;;1.98;73.02
59971;BME280;45825;45.434;9.116;2023-01-30T07:45:41;100795.84;;;1.95;73.43
59971;BME280;45825;45.434;9.116;2023-01-30T07:48:09;100790.44;;;2.14;72.77
59971;BME280;45825;45.434;9.116;2023-01-30T07:50:34;100777.34;;;2.23;72.90
59971;BME280;45825;45.434;9.116;2023-01-30T07:53:04;100767.00;;;2.19;72.22
59971;BME280;45825;45.434;9.116;2023-01-30T07:55:29;100771.47;;;2.07;73.55
59971;BME280;45825;45.434;9.116;2023-01-30T07:57:55;100806.66;;;2.32;73.08
59971;BME280;45825;45.434;9.116;2023-01-30T08:00:20;100801.41;;;2.36;72.20
59971;BME280;45825;45.434;9.116;2023-01-30T08:02:45;100807.47;;;2.35;72.54
59971;BME280;45825;45.434;9.116;2023-01-30T08:05:11;100821.22;;;2.44;72.19
59971;BME280;45825;45.434;9.116;2023-01-30T08:07:36;100832.34;;;2.57;71.69
59971;BME280;45825;45.434;9.116;2023-01-30T08:10:02;100839.16;;;2.64;70.69
59971;BME280;45825;45.434;9.116;2023-01-30T08:12:28;100833.16;;;2.60;70.73
59971;BME280;45825;45.434;9.116;2023-01-30T08:14:53;100838.50;;;2.48;71.12
59971;BME280;45825;45.434;9.116;2023-01-30T08:17:18;100830.69;;;2.49;70.77
59971;BME280;45825;45.434;9.116;2023-01-30T08:19:44;100826.31;;;2.53;71.44
59971;BME280;45825;45.434;9.116;2023-01-30T08:22:09;100821.19;;;2.47;71.20
59971;BME280;45825;45.434;9.116;2023-01-30T08:24:34;100828.75;;;2.64;70.60
59971;BME280;45825;45.434;9.116;2023-01-30T08:27:00;100814.03;;;2.66;70.02
59971;BME280;45825;45.434;9.116;2023-01-30T08:29:25;100794.38;;;2.45;70.89
59971;BME280;45825;45.434;9.116;2023-01-30T08:31:55;100800.56;;;2.36;71.14
59971;BME280;45825;45.434;9.116;2023-01-30T08:34:21;100789.28;;;2.39;70.93
59971;BME280;45825;45.434;9.116;2023-01-30T08:36:47;100806.59;;;2.38;71.27
59971;BME280;45825;45.434;9.116;2023-01-30T08:39:13;100796.06;;;2.47;71.77
59971;BME280;45825;45.434;9.116;2023-01-30T08:41:38;100801.94;;;2.63;71.12
59971;BME280;45825;45.434;9.116;2023-01-30T08:44:07;100795.72;;;2.74;70.50
59971;BME280;45825;45.434;9.116;2023-01-30T08:46:32;100805.81;;;2.92;70.67
59971;BME280;45825;45.434;9.116;2023-01-30T08:48:57;100797.09;;;2.98;70.12
59971;BME280;45825;45.434;9.116;2023-01-30T08:51:22;100803.97;;;3.02;70.04
59971;BME280;45825;45.434;9.116;2023-01-30T08:53:48;100797.69;;;3.16;69.41
59971;BME280;45825;45.434;9.116;2023-01-30T08:56:13;100786.38;;;3.18;68.77
59971;BME280;45825;45.434;9.116;2023-01-30T08:58:39;100783.84;;;3.12;67.76
59971;BME280;45825;45.434;9.116;2023-01-30T09:01:05;100782.19;;;3.10;67.71
59971;BME280;45825;45.434;9.116;2023-01-30T09:03:31;100773.59;;;3.03;68.06
59971;BME280;45825;45.434;9.116;2023-01-30T09:05:56;100765.03;;;2.96;67.78
59971;BME280;45825;45.434;9.116;2023-01-30T09:08:21;100753.81;;;2.96;67.72
59971;BME280;45825;45.434;9.116;2023-01-30T09:10:47;100770.16;;;3.01;68.31
59971;BME280;45825;45.434;9.116;2023-01-30T09:13:12;100775.16;;;3.13;67.85
59971;BME280;45825;45.434;9.116;2023-01-30T09:15:41;100782.81;;;3.22;67.85
59971;BME280;45825;45.434;9.116;2023-01-30T09:18:06;100800.91;;;3.30;67.73
59971;BME280;45825;45.434;9.116;2023-01-30T09:20:32;100814.72;;;3.34;68.59
59971;BME280;45825;45.434;9.116;2023-01-30T09:22:58;100820.66;;;3.44;68.45
59971;BME280;45825;45.434;9.116;2023-01-30T09:25:23;100817.84;;;3.55;66.77
59971;BME280;45825;45.434;9.116;2023-01-30T09:27:49;100822.22;;;3.53;67.48
59971;BME280;45825;45.434;9.116;2023-01-30T09:30:15;100818.56;;;3.63;66.88
59971;BME280;45825;45.434;9.116;2023-01-30T09:32:41;100804.00;;;3.53;67.01
59971;BME280;45825;45.434;9.116;2023-01-30T09:35:06;100803.25;;;3.46;66.70
59971;BME280;45825;45.434;9.116;2023-01-30T09:37:33;100798.78;;;3.54;66.99
59971;BME280;45825;45.434;9.116;2023-01-30T09:39:59;100774.63;;;3.46;67.32
59971;BME280;45825;45.434;9.116;2023-01-30T09:45:15;100765.78;;;3.56;67.68
59971;BME280;45825;45.434;9.116;2023-01-30T09:55:47;100743.88;;;4.11;66.27
59971;BME280;45825;45.434;9.116;2023-01-30T09:58:21;100761.38;;;4.04;66.84
59971;BME280;45825;45.434;9.116;2023-01-30T10:00:51;100751.84;;;4.04;67.02
59971;BME280;45825;45.434;9.116;2023-01-30T10:06:13;100721.94;;;4.23;67.26
59971;BME280;45825;45.434;9.116;2023-01-30T10:11:21;100704.25;;;4.37;65.61
59971;BME280;45825;45.434;9.116;2023-01-30T10:27:47;100702.34;;;5.50;62.73
59971;BME280;45825;45.434;9.116;2023-01-30T10:30:15;100698.91;;;5.79;61.57
59971;BME280;45825;45.434;9.116;2023-01-30T10:32:54;100696.59;;;6.00;60.92
59971;BME280;45825;45.434;9.116;2023-01-30T10:35:24;100690.47;;;6.31;60.03
59971;BME280;45825;45.434;9.116;2023-01-30T10:40:30;100682.91;;;6.79;58.36
59971;BME280;45825;45.434;9.116;2023-01-30T10:43:18;100651.63;;;7.26;56.12
59971;BME280;45825;45.434;9.116;2023-01-30T10:48:57;100621.53;;;9.36;49.87
59971;BME280;45825;45.434;9.116;2023-01-30T10:54:37;100599.94;;;12.58;42.45
59971;BME280;45825;45.434;9.116;2023-01-30T10:57:26;100594.22;;;13.96;38.95
59971;BME280;45825;45.434;9.116;2023-01-30T11:02:40;100566.78;;;16.05;35.16
59971;BME280;45825;45.434;9.116;2023-01-30T11:05:23;100560.13;;;16.59;34.10
59971;BME280;45825;45.434;9.116;2023-01-30T11:07:49;100547.44;;;17.77;32.20
59971;BME280;45825;45.434;9.116;2023-01-30T11:10:24;100555.38;;;18.54;31.14
59971;BME280;45825;45.434;9.116;2023-01-30T11:13:06;100548.56;;;19.23;30.14
59971;BME280;45825;45.434;9.116;2023-01-30T11:15:39;100536.38;;;19.81;29.34
59971;BME280;45825;45.434;9.116;2023-01-30T11:18:06;100524.44;;;20.15;28.66
59971;BME280;45825;45.434;9.116;2023-01-30T11:20:38;100518.88;;;20.86;27.75
59971;BME280;45825;45.434;9.116;2023-01-30T11:23:23;100512.25;;;21.46;26.45
59971;BME280;45825;45.434;9.116;2023-01-30T11:25:58;100499.97;;;21.25;26.60
59971;BME280;45825;45.434;9.116;2023-01-30T11:28:25;100479.19;;;21.37;26.64
59971;BME280;45825;45.434;9.116;2023-01-30T11:30:56;100483.72;;;22.27;25.69
59971;BME280;45825;45.434;9.116;2023-01-30T11:33:30;100478.25;;;21.93;25.26
59971;BME280;45825;45.434;9.116;2023-01-30T11:36:00;100485.72;;;22.52;24.78
59971;BME280;45825;45.434;9.116;2023-01-30T11:38:34;100483.84;;;21.81;24.93
59971;BME280;45825;45.434;9.116;2023-01-30T11:41:02;100472.44;;;21.97;25.25
59971;BME280;45825;45.434;9.116;2023-01-30T11:43:28;100470.81;;;22.84;24.14
59971;BME280;45825;45.434;9.116;2023-01-30T11:45:54;100468.09;;;22.75;23.96
59971;BME280;45825;45.434;9.116;2023-01-30T11:48:26;100453.47;;;23.05;23.20
59971;BME280;45825;45.434;9.116;2023-01-30T11:51:00;100440.69;;;23.66;22.56
59971;BME280;45825;45.434;9.116;2023-01-30T11:53:35;100439.16;;;23.47;23.18
59971;BME280;45825;45.434;9.116;2023-01-30T11:56:31;100431.66;;;22.99;23.38
59971;BME280;45825;45.434;9.116;2023-01-30T11:59:06;100439.91;;;23.14;23.25
59971;BME280;45825;45.434;9.116;2023-01-30T12:01:34;100438.88;;;23.75;22.72
59971;BME280;45825;45.434;9.116;2023-01-30T12:04:05;100426.56;;;23.97;22.61
59971;BME280;45825;45.434;9.116;2023-01-30T12:06:35;100418.47;;;24.39;22.22
59971;BME280;45825;45.434;9.116;2023-01-30T12:09:01;100395.94;;;24.48;21.93
59971;BME280;45825;45.434;9.116;2023-01-30T12:13:58;100382.63;;;24.95;21.70
59971;BME280;45825;45.434;9.116;2023-01-30T12:19:34;100420.78;;;24.99;20.88
59971;BME280;45825;45.434;9.116;2023-01-30T12:22:19;100430.59;;;24.35;21.63
59971;BME280;45825;45.434;9.116;2023-01-30T12:27:46;100399.50;;;23.24;22.85
59971;BME280;45825;45.434;9.116;2023-01-30T12:30:46;100379.25;;;23.55;22.33
59971;BME280;45825;45.434;9.116;2023-01-30T12:33:14;100357.22;;;23.18;22.67
59971;BME280;45825;45.434;9.116;2023-01-30T12:36:07;100346.75;;;24.39;22.05
59971;BME280;45825;45.434;9.116;2023-01-30T12:49:51;100309.88;;;25.88;20.49
59971;BME280;45825;45.434;9.116;2023-01-30T12:58:05;100297.50;;;25.25;20.98
59971;BME280;45825;45.434;9.116;2023-01-30T13:00:48;100292.28;;;25.62;21.11
59971;BME280;45825;45.434;9.116;2023-01-30T13:03:44;100301.22;;;25.39;21.38
59971;BME280;45825;45.434;9.116;2023-01-30T13:09:31;100290.72;;;26.13;20.77
59971;BME280;45825;45.434;9.116;2023-01-30T13:15:24;100277.44;;;25.97;20.92
59971;BME280;45825;45.434;9.116;2023-01-30T13:18:00;100259.69;;;24.64;22.33
59971;BME280;45825;45.434;9.116;2023-01-30T13:23:45;100260.03;;;25.16;22.21
59971;BME280;45825;45.434;9.116;2023-01-30T13:26:15;100262.63;;;25.47;21.84
59971;BME280;45825;45.434;9.116;2023-01-30T13:28:48;100253.53;;;24.87;22.46
59971;BME280;45825;45.434;9.116;2023-01-30T13:31:19;100239.41;;;24.85;22.59
59971;BME280;45825;45.434;9.116;2023-01-30T13:33:49;100234.00;;;25.46;22.62
59971;BME280;45825;45.434;9.116;2023-01-30T13:36:30;100229.78;;;25.82;21.95
59971;BME280;45825;45.434;9.116;2023-01-30T13:39:00;100223.88;;;26.60;21.38
59971;BME280;45825;45.434;9.116;2023-01-30T13:41:28;100227.44;;;26.24;21.87
59971;BME280;45825;45.434;9.116;2023-01-30T13:43:56;100215.88;;;27.17;20.90
59971;BME280;45825;45.434;9.116;2023-01-30T13:46:25;100207.59;;;26.90;21.07
59971;BME280;45825;45.434;9.116;2023-01-30T13:51:45;100208.44;;;25.65;22.47
59971;BME280;45825;45.434;9.116;2023-01-30T13:57:42;100201.97;;;26.92;20.99
59971;BME280;45825;45.434;9.116;2023-01-30T14:00:17;100199.25;;;26.48;21.80
59971;BME280;45825;45.434;9.116;2023-01-30T14:10:44;100193.44;;;22.18;26.61
59971;BME280;45825;45.434;9.116;2023-01-30T14:13:12;100186.66;;;21.98;26.65
59971;BME280;45825;45.434;9.116;2023-01-30T14:15:40;100178.28;;;23.35;25.68
59971;BME280;45825;45.434;9.116;2023-01-30T14:20:51;100183.50;;;23.28;25.59
59971;BME280;45825;45.434;9.116;2023-01-30T14:23:34;100197.41;;;22.49;26.47
59971;BME280;45825;45.434;9.116;2023-01-30T14:26:00;100207.53;;;19.58;30.15
59971;BME280;45825;45.434;9.116;2023-01-30T14:30:59;100204.63;;;15.63;37.23
59971;BME280;45825;45.434;9.116;2023-01-30T14:38:26;100208.34;;;12.32;45.14
59971;BME280;45825;45.434;9.116;2023-01-30T14:45:56;100198.44;;;11.48;48.51
59971;BME280;45825;45.434;9.116;2023-01-30T15:04:47;100184.63;;;10.69;51.86
59971;BME280;45825;45.434;9.116;2023-01-30T15:07:17;100183.53;;;10.57;52.04
59971;BME280;45825;45.434;9.116;2023-01-30T15:09:51;100183.72;;;10.54;52.86
59971;BME280;45825;45.434;9.116;2023-01-30T15:17:47;100191.91;;;10.31;53.16
59971;BME280;45825;45.434;9.116;2023-01-30T15:20:23;100183.19;;;10.31;53.35
59971;BME280;45825;45.434;9.116;2023-01-30T15:25:50;100199.81;;;10.31;53.21
59971;BME280;45825;45.434;9.116;2023-01-30T15:28:46;100201.66;;;9.97;54.31
59971;BME280;45825;45.434;9.116;2023-01-30T15:31:19;100202.75;;;9.93;54.97
59971;BME280;45825;45.434;9.116;2023-01-30T15:33:47;100203.78;;;9.90;54.70
59971;BME280;45825;45.434;9.116;2023-01-30T15:36:24;100211.72;;;9.89;54.93
59971;BME280;45825;45.434;9.116;2023-01-30T15:39:05;100206.47;;;9.89;54.93
59971;BME280;45825;45.434;9.116;2023-01-30T15:41:36;100206.72;;;9.84;54.93
59971;BME280;45825;45.434;9.116;2023-01-30T15:52:04;100216.84;;;9.58;56.33
59971;BME280;45825;45.434;9.116;2023-01-30T15:54:33;100211.75;;;9.55;57.37
59971;BME280;45825;45.434;9.116;2023-01-30T15:56:59;100218.31;;;9.46;57.35
59971;BME280;45825;45.434;9.116;2023-01-30T15:59:28;100212.00;;;9.33;57.49